sensor_id;sensor_type;location;lat;lon;timestamp;temperature;humidity
21811;DHT22;11067;48.788;9.208;2023-04-23T00:01:13;15.10;99.90
21811;DHT22;11067;48.788;9.208;2023-04-23T00:03:40;15.10;99.90
21811;DHT22;11067;48.788;9.208;2023-04-23T00:06:07;15.10;99.90
21811;DHT22;11067;48.788;9.208;2023-04-23T00:08:34;15.10;99.90
21811;DHT22;11067;48.788;9.208;2023-04-23T00:11:02;15.10;99.90
21811;DHT22;11067;48.788;9.208;2023-04-23T00:13:28;15.10;99.90
21811;DHT22;11067;48.788;9.208;2023-04-23T00:15:53;15.10;99.90
21811;DHT22;11067;48.788;9.208;2023-04-23T00:18:19;15.10;99.90
21811;DHT22;11067;48.788;9.208;2023-04-23T00:20:45;15.10;99.90
21811;DHT22;11067;48.788;9.208;2023-04-23T00:23:11;15.00;99.90
21811;DHT22;11067;48.788;9.208;2023-04-23T00:25:36;15.10;99.90
21811;DHT22;11067;48.788;9.208;2023-04-23T00:28:02;15.00;99.90
21811;DHT22;11067;48.788;9.208;2023-04-23T00:30:28;15.00;99.90
21811;DHT22;11067;48.788;9.208;2023-04-23T00:32:53;15.00;99.90
21811;DHT22;11067;48.788;9.208;2023-04-23T00:35:19;15.00;99.90
21811;DHT22;11067;48.788;9.208;2023-04-23T00:37:45;14.90;99.90
21811;DHT22;11067;48.788;9.208;2023-04-23T00:40:11;14.90;99.90
21811;DHT22;11067;48.788;9.208;2023-04-23T00:42:37;14.90;99.90
21811;DHT22;11067;48.788;9.208;2023-04-23T00:45:04;14.80;99.90
21811;DHT22;11067;48.788;9.208;2023-04-23T00:47:31;14.80;99.90
21811;DHT22;11067;48.788;9.208;2023-04-23T00:49:58;14.80;99.90
21811;DHT22;11067;48.788;9.208;2023-04-23T00:52:25;14.70;99.90
21811;DHT22;11067;48.788;9.208;2023-04-23T00:54:50;14.70;99.90
21811;DHT22;11067;48.788;9.208;2023-04-23T00:57:16;14.60;99.90
21811;DHT22;11067;48.788;9.208;2023-04-23T00:59:42;14.60;99.90
21811;DHT22;11067;48.788;9.208;2023-04-23T01:02:08;14.50;99.90
21811;DHT22;11067;48.788;9.208;2023-04-23T01:04:34;14.50;99.90
21811;DHT22;11067;48.788;9.208;2023-04-23T01:07:01;14.50;99.90
21811;DHT22;11067;48.788;9.208;2023-04-23T01:09:27;14.50;99.90
21811;DHT22;11067;48.788;9.208;2023-04-23T01:11:54;14.40;99.90
21811;DHT22;11067;48.788;9.208;2023-04-23T01:14:22;14.40;99.90
21811;DHT22;11067;48.788;9.208;2023-04-23T01:16:48;14.30;99.90
21811;DHT22;11067;48.788;9.208;2023-04-23T01:19:14;14.30;99.90
21811;DHT22;11067;48.788;9.208;2023-04-23T01:21:41;14.30;99.90
21811;DHT22;11067;48.788;9.208;2023-04-23T01:24:08;14.30;99.90
21811;DHT22;11067;48.788;9.208;2023-04-23T01:26:34;14.20;99.90
21811;DHT22;11067;48.788;9.208;2023-04-23T01:29:00;14.10;99.90
21811;DHT22;11067;48.788;9.208;2023-04-23T01:31:26;14.20;99.90
21811;DHT22;11067;48.788;9.208;2023-04-23T01:33:53;14.20;99.90
21811;DHT22;11067;48.788;9.208;2023-04-23T01:36:23;14.10;99.90
21811;DHT22;11067;48.788;9.208;2023-04-23T01:38:49;14.10;99.90
21811;DHT22;11067;48.788;9.208;2023-04-23T01:41:14;14.10;99.90
21811;DHT22;11067;48.788;9.208;2023-04-23T01:43:43;14.20;99.90
21811;DHT22;11067;48.788;9.208;2023-04-23T01:46:09;14.20;99.90
21811;DHT22;11067;48.788;9.208;2023-04-23T01:48:36;14.10;99.90
21811;DHT22;11067;48.788;9.208;2023-04-23T01:51:01;14.10;99.90
21811;DHT22;11067;48.788;9.208;2023-04-23T01:53:27;14.10;99.90
21811;DHT22;11067;48.788;9.208;2023-04-23T01:55:54;14.00;99.90
21811;DHT22;11067;48.788;9.208;2023-04-23T01:58:20;14.10;99.90
21811;DHT22;11067;48.788;9.208;2023-04-23T02:00:47;14.00;99.90
21811;DHT22;11067;48.788;9.208;2023-04-23T02:03:13;14.00;99.90
21811;DHT22;11067;48.788;9.208;2023-04-23T02:05:40;14.00;99.90
21811;DHT22;11067;48.788;9.208;2023-04-23T02:08:05;14.00;99.90
21811;DHT22;11067;48.788;9.208;2023-04-23T02:10:31;13.90;99.90
21811;DHT22;11067;48.788;9.208;2023-04-23T02:12:58;13.90;99.90
21811;DHT22;11067;48.788;9.208;2023-04-23T02:15:24;13.90;99.90
21811;DHT22;11067;48.788;9.208;2023-04-23T02:17:49;13.90;99.90
21811;DHT22;11067;48.788;9.208;2023-04-23T02:20:16;13.90;99.90
21811;DHT22;11067;48.788;9.208;2023-04-23T02:22:43;13.80;99.90
21811;DHT22;11067;48.788;9.208;2023-04-23T02:25:09;13.80;99.90
21811;DHT22;11067;48.788;9.208;2023-04-23T02:27:35;13.80;99.90
21811;DHT22;11067;48.788;9.208;2023-04-23T02:30:00;13.70;99.90
21811;DHT22;11067;48.788;9.208;2023-04-23T02:32:26;13.80;99.90
21811;DHT22;11067;48.788;9.208;2023-04-23T02:34:52;13.60;99.90
21811;DHT22;11067;48.788;9.208;2023-04-23T02:37:18;13.50;99.90
21811;DHT22;11067;48.788;9.208;2023-04-23T02:39:44;13.40;99.90
21811;DHT22;11067;48.788;9.208;2023-04-23T02:42:10;13.40;99.90
21811;DHT22;11067;48.788;9.208;2023-04-23T02:44:35;13.30;99.90
21811;DHT22;11067;48.788;9.208;2023-04-23T02:47:01;13.30;99.90
21811;DHT22;11067;48.788;9.208;2023-04-23T02:49:27;13.30;99.90
21811;DHT22;11067;48.788;9.208;2023-04-23T02:51:52;13.30;99.90
21811;DHT22;11067;48.788;9.208;2023-04-23T02:54:18;13.20;99.90
21811;DHT22;11067;48.788;9.208;2023-04-23T02:56:43;13.20;99.90
21811;DHT22;11067;48.788;9.208;2023-04-23T02:59:09;13.20;99.90
21811;DHT22;11067;48.788;9.208;2023-04-23T03:01:35;13.10;99.90
21811;DHT22;11067;48.788;9.208;2023-04-23T03:04:01;13.10;99.90
21811;DHT22;11067;48.788;9.208;2023-04-23T03:06:28;13.10;99.90
21811;DHT22;11067;48.788;9.208;2023-04-23T03:08:53;13.10;99.90
21811;DHT22;11067;48.788;9.208;2023-04-23T03:11:19;13.10;99.90
21811;DHT22;11067;48.788;9.208;2023-04-23T03:13:45;13.10;99.90
21811;DHT22;11067;48.788;9.208;2023-04-23T03:16:11;13.00;99.90
21811;DHT22;11067;48.788;9.208;2023-04-23T03:18:36;13.00;99.90
21811;DHT22;11067;48.788;9.208;2023-04-23T03:21:13;13.00;99.90
21811;DHT22;11067;48.788;9.208;2023-04-23T03:23:39;13.00;99.90
21811;DHT22;11067;48.788;9.208;2023-04-23T03:26:05;13.00;99.90
21811;DHT22;11067;48.788;9.208;2023-04-23T03:28:30;12.90;99.90
21811;DHT22;11067;48.788;9.208;2023-04-23T03:30:56;12.90;99.90
21811;DHT22;11067;48.788;9.208;2023-04-23T03:33:21;12.90;99.90
21811;DHT22;11067;48.788;9.208;2023-04-23T03:35:47;12.80;99.90
21811;DHT22;11067;48.788;9.208;2023-04-23T03:38:12;12.90;99.90
21811;DHT22;11067;48.788;9.208;2023-04-23T03:40:38;12.80;99.90
21811;DHT22;11067;48.788;9.208;2023-04-23T03:43:03;12.80;99.90
21811;DHT22;11067;48.788;9.208;2023-04-23T03:45:29;12.80;99.90
21811;DHT22;11067;48.788;9.208;2023-04-23T03:47:55;12.70;99.90
21811;DHT22;11067;48.788;9.208;2023-04-23T03:50:21;12.80;99.90
21811;DHT22;11067;48.788;9.208;2023-04-23T03:52:46;12.70;99.90
21811;DHT22;11067;48.788;9.208;2023-04-23T03:55:12;12.70;99.90
21811;DHT22;11067;48.788;9.208;2023-04-23T03:57:37;12.60;99.90
21811;DHT22;11067;48.788;9.208;2023-04-23T04:00:04;12.70;99.90
21811;DHT22;11067;48.788;9.208;2023-04-23T04:02:32;12.70;99.90
21811;DHT22;11067;48.788;9.208;2023-04-23T04:04:58;12.70;99.90
21811;DHT22;11067;48.788;9.208;2023-04-23T04:07:23;12.70;99.90
21811;DHT22;11067;48.788;9.208;2023-04-23T04:09:50;12.70;99.90
21811;DHT22;11067;48.788;9.208;2023-04-23T04:12:15;12.70;99.90
21811;DHT22;11067;48.788;9.208;2023-04-23T04:14:41;12.70;99.90
21811;DHT22;11067;48.788;9.208;2023-04-23T04:17:07;12.70;99.90
21811;DHT22;11067;48.788;9.208;2023-04-23T04:19:33;12.70;99.90
21811;DHT22;11067;48.788;9.208;2023-04-23T04:21:59;12.60;99.90
21811;DHT22;11067;48.788;9.208;2023-04-23T04:24:26;12.60;99.90
21811;DHT22;11067;48.788;9.208;2023-04-23T04:26:53;12.60;99.90
21811;DHT22;11067;48.788;9.208;2023-04-23T04:29:18;12.50;99.90
21811;DHT22;11067;48.788;9.208;2023-04-23T04:31:46;12.50;99.90
21811;DHT22;11067;48.788;9.208;2023-04-23T04:34:11;12.50;99.90
21811;DHT22;11067;48.788;9.208;2023-04-23T04:36:39;12.40;99.90
21811;DHT22;11067;48.788;9.208;2023-04-23T04:39:05;12.50;99.90
21811;DHT22;11067;48.788;9.208;2023-04-23T04:41:32;12.40;99.90
21811;DHT22;11067;48.788;9.208;2023-04-23T04:43:58;12.30;99.90
21811;DHT22;11067;48.788;9.208;2023-04-23T04:46:23;12.40;99.90
21811;DHT22;11067;48.788;9.208;2023-04-23T04:48:50;12.40;99.90
21811;DHT22;11067;48.788;9.208;2023-04-23T04:51:16;12.40;99.90
21811;DHT22;11067;48.788;9.208;2023-04-23T04:53:42;12.40;99.90
21811;DHT22;11067;48.788;9.208;2023-04-23T04:56:08;12.40;99.90
21811;DHT22;11067;48.788;9.208;2023-04-23T04:58:33;12.40;99.90
21811;DHT22;11067;48.788;9.208;2023-04-23T05:00:59;12.40;99.90
21811;DHT22;11067;48.788;9.208;2023-04-23T05:03:25;12.40;99.90
21811;DHT22;11067;48.788;9.208;2023-04-23T05:05:51;12.50;99.90
21811;DHT22;11067;48.788;9.208;2023-04-23T05:08:19;12.50;99.90
21811;DHT22;11067;48.788;9.208;2023-04-23T05:10:46;12.50;99.90
21811;DHT22;11067;48.788;9.208;2023-04-23T05:13:12;12.50;99.90
21811;DHT22;11067;48.788;9.208;2023-04-23T05:15:37;12.60;99.90
21811;DHT22;11067;48.788;9.208;2023-04-23T05:18:04;12.60;99.90
21811;DHT22;11067;48.788;9.208;2023-04-23T05:20:30;12.80;99.90
21811;DHT22;11067;48.788;9.208;2023-04-23T05:22:55;12.80;99.90
21811;DHT22;11067;48.788;9.208;2023-04-23T05:25:23;12.80;99.90
21811;DHT22;11067;48.788;9.208;2023-04-23T05:27:49;13.00;99.90
21811;DHT22;11067;48.788;9.208;2023-04-23T05:30:15;13.20;99.90
21811;DHT22;11067;48.788;9.208;2023-04-23T05:32:41;13.50;99.90
21811;DHT22;11067;48.788;9.208;2023-04-23T05:35:07;13.40;99.90
21811;DHT22;11067;48.788;9.208;2023-04-23T05:37:32;13.60;99.90
21811;DHT22;11067;48.788;9.208;2023-04-23T05:39:58;13.60;99.90
21811;DHT22;11067;48.788;9.208;2023-04-23T05:42:24;13.80;99.90
21811;DHT22;11067;48.788;9.208;2023-04-23T05:44:49;13.90;99.90
21811;DHT22;11067;48.788;9.208;2023-04-23T05:47:15;14.10;99.90
21811;DHT22;11067;48.788;9.208;2023-04-23T05:49:40;14.00;99.90
21811;DHT22;11067;48.788;9.208;2023-04-23T05:52:06;14.10;99.90
21811;DHT22;11067;48.788;9.208;2023-04-23T05:54:32;14.20;99.90
21811;DHT22;11067;48.788;9.208;2023-04-23T05:56:57;14.30;99.90
21811;DHT22;11067;48.788;9.208;2023-04-23T05:59:23;14.70;99.90
21811;DHT22;11067;48.788;9.208;2023-04-23T06:01:49;15.20;99.90
21811;DHT22;11067;48.788;9.208;2023-04-23T06:04:17;15.00;99.90
21811;DHT22;11067;48.788;9.208;2023-04-23T06:06:43;15.00;99.90
21811;DHT22;11067;48.788;9.208;2023-04-23T06:09:08;14.90;99.90
21811;DHT22;11067;48.788;9.208;2023-04-23T06:11:34;14.80;99.90
21811;DHT22;11067;48.788;9.208;2023-04-23T06:14:03;14.60;99.90
21811;DHT22;11067;48.788;9.208;2023-04-23T06:16:29;14.60;99.90
21811;DHT22;11067;48.788;9.208;2023-04-23T06:18:54;14.30;99.90
21811;DHT22;11067;48.788;9.208;2023-04-23T06:21:21;14.50;99.90
21811;DHT22;11067;48.788;9.208;2023-04-23T06:23:47;14.00;99.90
21811;DHT22;11067;48.788;9.208;2023-04-23T06:26:12;14.10;99.90
21811;DHT22;11067;48.788;9.208;2023-04-23T06:28:39;14.10;99.90
21811;DHT22;11067;48.788;9.208;2023-04-23T06:31:05;14.00;99.90
21811;DHT22;11067;48.788;9.208;2023-04-23T06:33:30;13.90;99.90
21811;DHT22;11067;48.788;9.208;2023-04-23T06:35:56;14.10;99.90
21811;DHT22;11067;48.788;9.208;2023-04-23T06:38:21;14.20;99.90
21811;DHT22;11067;48.788;9.208;2023-04-23T06:40:47;14.10;99.90
21811;DHT22;11067;48.788;9.208;2023-04-23T06:43:13;14.10;99.90
21811;DHT22;11067;48.788;9.208;2023-04-23T06:45:39;14.30;99.90
21811;DHT22;11067;48.788;9.208;2023-04-23T06:48:05;14.40;99.90
21811;DHT22;11067;48.788;9.208;2023-04-23T06:50:30;14.70;99.90
21811;DHT22;11067;48.788;9.208;2023-04-23T06:52:56;14.80;99.90
21811;DHT22;11067;48.788;9.208;2023-04-23T06:55:22;14.50;99.90
21811;DHT22;11067;48.788;9.208;2023-04-23T06:57:51;14.60;99.90
21811;DHT22;11067;48.788;9.208;2023-04-23T07:00:17;14.70;99.90
21811;DHT22;11067;48.788;9.208;2023-04-23T07:02:43;15.00;99.90
21811;DHT22;11067;48.788;9.208;2023-04-23T07:05:09;15.30;99.90
21811;DHT22;11067;48.788;9.208;2023-04-23T07:07:34;15.60;99.90
21811;DHT22;11067;48.788;9.208;2023-04-23T07:10:02;16.00;99.90
21811;DHT22;11067;48.788;9.208;2023-04-23T07:12:28;16.20;99.90
21811;DHT22;11067;48.788;9.208;2023-04-23T07:14:54;16.20;99.90
21811;DHT22;11067;48.788;9.208;2023-04-23T07:17:20;16.20;99.90
21811;DHT22;11067;48.788;9.208;2023-04-23T07:19:45;16.20;99.90
21811;DHT22;11067;48.788;9.208;2023-04-23T07:22:12;16.70;99.90
21811;DHT22;11067;48.788;9.208;2023-04-23T07:24:37;16.80;99.90
21811;DHT22;11067;48.788;9.208;2023-04-23T07:27:03;16.40;99.90
21811;DHT22;11067;48.788;9.208;2023-04-23T07:29:28;16.40;99.90
21811;DHT22;11067;48.788;9.208;2023-04-23T07:31:54;16.30;99.90
21811;DHT22;11067;48.788;9.208;2023-04-23T07:34:20;16.30;99.90
21811;DHT22;11067;48.788;9.208;2023-04-23T07:36:46;16.10;99.90
21811;DHT22;11067;48.788;9.208;2023-04-23T07:39:11;16.10;99.90
21811;DHT22;11067;48.788;9.208;2023-04-23T07:41:37;16.10;99.90
21811;DHT22;11067;48.788;9.208;2023-04-23T07:44:03;16.20;99.90
21811;DHT22;11067;48.788;9.208;2023-04-23T07:46:29;16.10;99.90
21811;DHT22;11067;48.788;9.208;2023-04-23T07:48:54;16.40;99.90
21811;DHT22;11067;48.788;9.208;2023-04-23T07:51:20;16.60;99.90
21811;DHT22;11067;48.788;9.208;2023-04-23T07:53:47;17.00;99.90
21811;DHT22;11067;48.788;9.208;2023-04-23T07:56:15;16.30;99.90
21811;DHT22;11067;48.788;9.208;2023-04-23T07:58:41;15.70;99.90
21811;DHT22;11067;48.788;9.208;2023-04-23T08:01:06;15.60;99.90
21811;DHT22;11067;48.788;9.208;2023-04-23T08:03:32;15.40;99.90
21811;DHT22;11067;48.788;9.208;2023-04-23T08:05:58;15.20;99.90
21811;DHT22;11067;48.788;9.208;2023-04-23T08:08:23;15.30;99.90
21811;DHT22;11067;48.788;9.208;2023-04-23T08:10:49;15.50;99.90
21811;DHT22;11067;48.788;9.208;2023-04-23T08:13:14;15.30;99.90
21811;DHT22;11067;48.788;9.208;2023-04-23T08:15:40;15.00;99.90
21811;DHT22;11067;48.788;9.208;2023-04-23T08:18:06;15.10;99.90
21811;DHT22;11067;48.788;9.208;2023-04-23T08:20:31;15.30;99.90
21811;DHT22;11067;48.788;9.208;2023-04-23T08:22:57;15.30;99.90
21811;DHT22;11067;48.788;9.208;2023-04-23T08:25:22;15.30;99.90
21811;DHT22;11067;48.788;9.208;2023-04-23T08:27:48;15.20;99.90
21811;DHT22;11067;48.788;9.208;2023-04-23T08:30:14;15.60;99.90
21811;DHT22;11067;48.788;9.208;2023-04-23T08:32:40;15.40;99.90
21811;DHT22;11067;48.788;9.208;2023-04-23T08:35:06;15.30;99.90
21811;DHT22;11067;48.788;9.208;2023-04-23T08:37:32;15.60;99.90
21811;DHT22;11067;48.788;9.208;2023-04-23T08:39:59;15.90;99.90
21811;DHT22;11067;48.788;9.208;2023-04-23T08:42:50;16.40;99.90
21811;DHT22;11067;48.788;9.208;2023-04-23T08:45:17;16.80;99.90
21811;DHT22;11067;48.788;9.208;2023-04-23T08:47:43;16.50;99.90
21811;DHT22;11067;48.788;9.208;2023-04-23T08:50:10;16.60;99.90
21811;DHT22;11067;48.788;9.208;2023-04-23T08:52:41;16.60;99.90
21811;DHT22;11067;48.788;9.208;2023-04-23T08:55:10;17.00;99.90
21811;DHT22;11067;48.788;9.208;2023-04-23T08:57:40;16.50;99.90
21811;DHT22;11067;48.788;9.208;2023-04-23T09:00:07;16.40;99.90
21811;DHT22;11067;48.788;9.208;2023-04-23T09:02:36;16.60;99.90
21811;DHT22;11067;48.788;9.208;2023-04-23T09:05:03;16.90;99.90
21811;DHT22;11067;48.788;9.208;2023-04-23T09:07:29;17.00;99.90
21811;DHT22;11067;48.788;9.208;2023-04-23T09:09:54;17.20;99.90
21811;DHT22;11067;48.788;9.208;2023-04-23T09:12:20;17.50;99.90
21811;DHT22;11067;48.788;9.208;2023-04-23T09:14:48;17.20;99.90
21811;DHT22;11067;48.788;9.208;2023-04-23T09:17:13;17.40;99.90
21811;DHT22;11067;48.788;9.208;2023-04-23T09:19:40;17.30;99.90
21811;DHT22;11067;48.788;9.208;2023-04-23T09:22:06;17.10;99.90
21811;DHT22;11067;48.788;9.208;2023-04-23T09:24:33;17.00;99.90
21811;DHT22;11067;48.788;9.208;2023-04-23T09:26:59;17.30;99.90
21811;DHT22;11067;48.788;9.208;2023-04-23T09:29:25;17.20;99.90
21811;DHT22;11067;48.788;9.208;2023-04-23T09:31:55;17.20;99.90
21811;DHT22;11067;48.788;9.208;2023-04-23T09:34:22;17.00;99.90
21811;DHT22;11067;48.788;9.208;2023-04-23T09:36:49;17.20;99.90
21811;DHT22;11067;48.788;9.208;2023-04-23T09:39:17;17.70;99.90
21811;DHT22;11067;48.788;9.208;2023-04-23T09:41:43;17.70;99.90
21811;DHT22;11067;48.788;9.208;2023-04-23T09:44:17;17.90;99.90
21811;DHT22;11067;48.788;9.208;2023-04-23T09:46:43;17.90;99.90
21811;DHT22;11067;48.788;9.208;2023-04-23T09:49:10;18.00;99.90
21811;DHT22;11067;48.788;9.208;2023-04-23T09:54:09;18.70;99.90
21811;DHT22;11067;48.788;9.208;2023-04-23T09:56:35;18.40;99.90
21811;DHT22;11067;48.788;9.208;2023-04-23T09:59:00;18.90;99.90
21811;DHT22;11067;48.788;9.208;2023-04-23T10:01:27;18.50;99.90
21811;DHT22;11067;48.788;9.208;2023-04-23T10:03:54;17.90;99.90
21811;DHT22;11067;48.788;9.208;2023-04-23T10:06:26;17.90;99.90
21811;DHT22;11067;48.788;9.208;2023-04-23T10:08:55;18.20;99.90
21811;DHT22;11067;48.788;9.208;2023-04-23T10:11:23;18.30;99.90
21811;DHT22;11067;48.788;9.208;2023-04-23T10:13:49;18.50;99.90
21811;DHT22;11067;48.788;9.208;2023-04-23T10:16:15;18.60;99.90
21811;DHT22;11067;48.788;9.208;2023-04-23T10:18:43;18.80;99.90
21811;DHT22;11067;48.788;9.208;2023-04-23T10:21:09;18.60;99.90
21811;DHT22;11067;48.788;9.208;2023-04-23T10:23:37;18.50;99.90
21811;DHT22;11067;48.788;9.208;2023-04-23T10:26:05;18.60;99.90
21811;DHT22;11067;48.788;9.208;2023-04-23T10:28:32;18.60;99.90
21811;DHT22;11067;48.788;9.208;2023-04-23T10:30:58;18.90;99.90
21811;DHT22;11067;48.788;9.208;2023-04-23T10:33:25;18.50;99.90
21811;DHT22;11067;48.788;9.208;2023-04-23T10:35:53;18.60;99.90
21811;DHT22;11067;48.788;9.208;2023-04-23T10:38:21;18.50;99.90
21811;DHT22;11067;48.788;9.208;2023-04-23T10:40:49;18.70;99.90
21811;DHT22;11067;48.788;9.208;2023-04-23T10:43:17;19.30;99.90
21811;DHT22;11067;48.788;9.208;2023-04-23T10:45:43;18.80;99.90
21811;DHT22;11067;48.788;9.208;2023-04-23T10:48:08;18.50;99.90
21811;DHT22;11067;48.788;9.208;2023-04-23T10:50:35;18.20;99.90
21811;DHT22;11067;48.788;9.208;2023-04-23T10:53:01;18.50;99.90
21811;DHT22;11067;48.788;9.208;2023-04-23T10:55:29;18.70;99.90
21811;DHT22;11067;48.788;9.208;2023-04-23T10:58:04;18.50;99.90
21811;DHT22;11067;48.788;9.208;2023-04-23T11:00:50;18.10;99.90
21811;DHT22;11067;48.788;9.208;2023-04-23T11:06:05;18.60;99.90
21811;DHT22;11067;48.788;9.208;2023-04-23T11:08:33;18.80;99.90
21811;DHT22;11067;48.788;9.208;2023-04-23T11:11:00;18.80;99.90
21811;DHT22;11067;48.788;9.208;2023-04-23T11:13:27;19.00;99.90
21811;DHT22;11067;48.788;9.208;2023-04-23T11:16:11;19.30;99.90
21811;DHT22;11067;48.788;9.208;2023-04-23T11:19:00;19.70;99.90
21811;DHT22;11067;48.788;9.208;2023-04-23T11:24:33;20.30;99.90
21811;DHT22;11067;48.788;9.208;2023-04-23T11:26:59;20.20;99.90
21811;DHT22;11067;48.788;9.208;2023-04-23T11:29:26;20.50;99.90
21811;DHT22;11067;48.788;9.208;2023-04-23T11:31:53;20.00;99.90
21811;DHT22;11067;48.788;9.208;2023-04-23T11:34:19;20.10;99.90
21811;DHT22;11067;48.788;9.208;2023-04-23T11:36:48;19.70;99.90
21811;DHT22;11067;48.788;9.208;2023-04-23T11:39:15;19.70;99.90
21811;DHT22;11067;48.788;9.208;2023-04-23T11:41:43;19.70;99.90
21811;DHT22;11067;48.788;9.208;2023-04-23T11:44:11;19.50;99.90
21811;DHT22;11067;48.788;9.208;2023-04-23T11:46:37;19.70;99.90
21811;DHT22;11067;48.788;9.208;2023-04-23T11:49:03;20.10;99.90
21811;DHT22;11067;48.788;9.208;2023-04-23T11:51:28;20.40;99.90
21811;DHT22;11067;48.788;9.208;2023-04-23T11:53:54;20.10;99.90
21811;DHT22;11067;48.788;9.208;2023-04-23T11:56:31;19.90;99.90
21811;DHT22;11067;48.788;9.208;2023-04-23T11:58:58;20.00;99.90
21811;DHT22;11067;48.788;9.208;2023-04-23T12:01:24;20.10;99.90
21811;DHT22;11067;48.788;9.208;2023-04-23T12:03:50;20.40;99.90
21811;DHT22;11067;48.788;9.208;2023-04-23T12:06:17;20.60;99.90
21811;DHT22;11067;48.788;9.208;2023-04-23T12:08:45;20.50;99.90
21811;DHT22;11067;48.788;9.208;2023-04-23T12:11:11;21.10;99.90
21811;DHT22;11067;48.788;9.208;2023-04-23T12:13:38;20.70;99.90
21811;DHT22;11067;48.788;9.208;2023-04-23T12:16:05;20.40;99.90
21811;DHT22;11067;48.788;9.208;2023-04-23T12:18:32;20.20;99.90
21811;DHT22;11067;48.788;9.208;2023-04-23T12:21:09;20.20;99.90
21811;DHT22;11067;48.788;9.208;2023-04-23T12:23:35;20.10;99.90
21811;DHT22;11067;48.788;9.208;2023-04-23T12:26:02;20.20;99.90
21811;DHT22;11067;48.788;9.208;2023-04-23T12:28:28;19.90;99.90
21811;DHT22;11067;48.788;9.208;2023-04-23T12:30:59;19.90;99.90
21811;DHT22;11067;48.788;9.208;2023-04-23T12:33:28;19.60;99.90
21811;DHT22;11067;48.788;9.208;2023-04-23T12:35:54;19.40;99.90
21811;DHT22;11067;48.788;9.208;2023-04-23T12:38:24;19.70;99.90
21811;DHT22;11067;48.788;9.208;2023-04-23T12:40:51;20.10;99.90
21811;DHT22;11067;48.788;9.208;2023-04-23T12:43:17;20.50;99.90
21811;DHT22;11067;48.788;9.208;2023-04-23T12:45:42;20.50;99.90
21811;DHT22;11067;48.788;9.208;2023-04-23T12:48:09;20.80;99.90
21811;DHT22;11067;48.788;9.208;2023-04-23T12:50:35;20.60;99.90
21811;DHT22;11067;48.788;9.208;2023-04-23T12:53:02;21.10;99.90
21811;DHT22;11067;48.788;9.208;2023-04-23T12:55:27;21.00;99.90
21811;DHT22;11067;48.788;9.208;2023-04-23T12:57:53;20.70;99.90
21811;DHT22;11067;48.788;9.208;2023-04-23T13:00:18;20.20;99.90
21811;DHT22;11067;48.788;9.208;2023-04-23T13:02:44;20.00;99.90
21811;DHT22;11067;48.788;9.208;2023-04-23T13:05:10;20.30;99.90
21811;DHT22;11067;48.788;9.208;2023-04-23T13:07:35;20.60;99.90
21811;DHT22;11067;48.788;9.208;2023-04-23T13:10:01;20.60;99.90
21811;DHT22;11067;48.788;9.208;2023-04-23T13:12:27;20.90;99.90
21811;DHT22;11067;48.788;9.208;2023-04-23T13:14:52;20.50;99.90
21811;DHT22;11067;48.788;9.208;2023-04-23T13:17:18;20.20;99.90
21811;DHT22;11067;48.788;9.208;2023-04-23T13:19:43;20.20;99.90
21811;DHT22;11067;48.788;9.208;2023-04-23T13:22:09;20.50;99.90
21811;DHT22;11067;48.788;9.208;2023-04-23T13:24:35;20.50;99.90
21811;DHT22;11067;48.788;9.208;2023-04-23T13:27:00;20.30;99.90
21811;DHT22;11067;48.788;9.208;2023-04-23T13:29:26;20.30;99.90
21811;DHT22;11067;48.788;9.208;2023-04-23T13:31:53;20.70;99.90
21811;DHT22;11067;48.788;9.208;2023-04-23T13:34:19;20.90;99.90
21811;DHT22;11067;48.788;9.208;2023-04-23T13:36:45;21.00;99.90
21811;DHT22;11067;48.788;9.208;2023-04-23T13:39:10;21.10;99.90
21811;DHT22;11067;48.788;9.208;2023-04-23T13:41:41;21.30;99.90
21811;DHT22;11067;48.788;9.208;2023-04-23T13:44:06;21.50;99.90
21811;DHT22;11067;48.788;9.208;2023-04-23T13:46:32;21.50;99.10
21811;DHT22;11067;48.788;9.208;2023-04-23T13:48:58;21.40;98.10
21811;DHT22;11067;48.788;9.208;2023-04-23T13:51:25;21.40;98.10
21811;DHT22;11067;48.788;9.208;2023-04-23T13:53:51;21.40;97.60
21811;DHT22;11067;48.788;9.208;2023-04-23T13:56:16;21.40;97.90
21811;DHT22;11067;48.788;9.208;2023-04-23T13:58:42;21.20;96.70
21811;DHT22;11067;48.788;9.208;2023-04-23T14:01:10;21.40;96.50
21811;DHT22;11067;48.788;9.208;2023-04-23T14:03:37;21.70;95.40
21811;DHT22;11067;48.788;9.208;2023-04-23T14:06:03;22.10;94.50
21811;DHT22;11067;48.788;9.208;2023-04-23T14:08:29;22.30;93.90
21811;DHT22;11067;48.788;9.208;2023-04-23T14:10:54;22.00;93.50
21811;DHT22;11067;48.788;9.208;2023-04-23T14:13:21;21.80;93.40
21811;DHT22;11067;48.788;9.208;2023-04-23T14:15:47;21.50;94.10
21811;DHT22;11067;48.788;9.208;2023-04-23T14:18:12;21.70;93.20
21811;DHT22;11067;48.788;9.208;2023-04-23T14:20:38;21.70;93.20
21811;DHT22;11067;48.788;9.208;2023-04-23T14:25:46;21.80;90.50
21811;DHT22;11067;48.788;9.208;2023-04-23T14:28:34;22.10;86.90
21811;DHT22;11067;48.788;9.208;2023-04-23T14:31:03;22.00;86.00
21811;DHT22;11067;48.788;9.208;2023-04-23T14:33:28;22.10;84.40
21811;DHT22;11067;48.788;9.208;2023-04-23T14:35:56;22.20;83.30
21811;DHT22;11067;48.788;9.208;2023-04-23T14:38:21;22.40;80.70
21811;DHT22;11067;48.788;9.208;2023-04-23T14:40:47;22.30;81.90
21811;DHT22;11067;48.788;9.208;2023-04-23T14:43:13;22.30;80.20
21811;DHT22;11067;48.788;9.208;2023-04-23T14:45:38;21.90;81.30
21811;DHT22;11067;48.788;9.208;2023-04-23T14:48:04;21.80;83.80
21811;DHT22;11067;48.788;9.208;2023-04-23T14:50:29;21.90;83.60
21811;DHT22;11067;48.788;9.208;2023-04-23T14:52:55;21.70;83.20
21811;DHT22;11067;48.788;9.208;2023-04-23T14:55:23;21.80;85.60
21811;DHT22;11067;48.788;9.208;2023-04-23T14:57:48;21.70;84.70
21811;DHT22;11067;48.788;9.208;2023-04-23T15:00:15;21.60;86.00
21811;DHT22;11067;48.788;9.208;2023-04-23T15:02:41;21.40;85.80
21811;DHT22;11067;48.788;9.208;2023-04-23T15:05:10;21.30;87.00
21811;DHT22;11067;48.788;9.208;2023-04-23T15:07:37;21.10;89.50
21811;DHT22;11067;48.788;9.208;2023-04-23T15:10:03;21.00;90.20
21811;DHT22;11067;48.788;9.208;2023-04-23T15:15:19;21.00;91.60
21811;DHT22;11067;48.788;9.208;2023-04-23T15:17:46;20.80;93.70
21811;DHT22;11067;48.788;9.208;2023-04-23T15:20:11;20.70;94.70
21811;DHT22;11067;48.788;9.208;2023-04-23T15:22:37;20.50;95.10
21811;DHT22;11067;48.788;9.208;2023-04-23T15:25:03;20.60;95.90
21811;DHT22;11067;48.788;9.208;2023-04-23T15:27:28;20.90;94.90
21811;DHT22;11067;48.788;9.208;2023-04-23T15:29:55;20.80;94.50
21811;DHT22;11067;48.788;9.208;2023-04-23T15:32:20;20.80;94.70
21811;DHT22;11067;48.788;9.208;2023-04-23T15:34:46;20.80;94.80
21811;DHT22;11067;48.788;9.208;2023-04-23T15:37:11;20.60;95.10
21811;DHT22;11067;48.788;9.208;2023-04-23T15:39:37;20.60;95.30